sensor_id;sensor_type;location;lat;lon;timestamp;temperature;humidity
29663;DHT22;16578;53.266;7.920;2022-09-12T00:01:56;17.90;70.10
29663;DHT22;16578;53.266;7.920;2022-09-12T00:04:22;17.90;70.30
29663;DHT22;16578;53.266;7.920;2022-09-12T00:06:47;17.90;70.50
29663;DHT22;16578;53.266;7.920;2022-09-12T00:09:14;17.90;70.60
29663;DHT22;16578;53.266;7.920;2022-09-12T00:11:42;17.90;70.50
29663;DHT22;16578;53.266;7.920;2022-09-12T00:14:09;17.90;70.40
29663;DHT22;16578;53.266;7.920;2022-09-12T00:16:37;17.80;70.30
29663;DHT22;16578;53.266;7.920;2022-09-12T00:19:04;17.80;70.20
29663;DHT22;16578;53.266;7.920;2022-09-12T00:21:32;17.80;70.20
29663;DHT22;16578;53.266;7.920;2022-09-12T00:23:58;17.80;70.30
29663;DHT22;16578;53.266;7.920;2022-09-12T00:26:23;17.80;70.50
29663;DHT22;16578;53.266;7.920;2022-09-12T00:28:49;17.80;70.60
29663;DHT22;16578;53.266;7.920;2022-09-12T00:31:18;17.80;70.50
29663;DHT22;16578;53.266;7.920;2022-09-12T00:33:44;17.70;70.50
29663;DHT22;16578;53.266;7.920;2022-09-12T00:36:14;17.80;70.70
29663;DHT22;16578;53.266;7.920;2022-09-12T00:38:40;17.70;70.80
29663;DHT22;16578;53.266;7.920;2022-09-12T00:41:16;17.70;70.80
29663;DHT22;16578;53.266;7.920;2022-09-12T00:43:45;17.80;70.80
29663;DHT22;16578;53.266;7.920;2022-09-12T00:49:15;17.80;71.20
29663;DHT22;16578;53.266;7.920;2022-09-12T00:51:48;17.70;71.00
29663;DHT22;16578;53.266;7.920;2022-09-12T00:54:21;17.70;71.10
29663;DHT22;16578;53.266;7.920;2022-09-12T00:56:50;17.80;71.30
29663;DHT22;16578;53.266;7.920;2022-09-12T00:59:23;17.70;71.40
29663;DHT22;16578;53.266;7.920;2022-09-12T01:01:51;17.70;71.40
29663;DHT22;16578;53.266;7.920;2022-09-12T01:04:19;17.70;71.40
29663;DHT22;16578;53.266;7.920;2022-09-12T01:06:46;17.80;71.60
29663;DHT22;16578;53.266;7.920;2022-09-12T01:09:16;17.70;71.50
29663;DHT22;16578;53.266;7.920;2022-09-12T01:11:43;17.80;71.50
29663;DHT22;16578;53.266;7.920;2022-09-12T01:14:12;17.70;71.40
29663;DHT22;16578;53.266;7.920;2022-09-12T01:16:38;17.70;71.50
29663;DHT22;16578;53.266;7.920;2022-09-12T01:25:00;17.80;71.70
29663;DHT22;16578;53.266;7.920;2022-09-12T01:28:01;17.70;71.60
29663;DHT22;16578;53.266;7.920;2022-09-12T01:31:07;17.70;71.50
29663;DHT22;16578;53.266;7.920;2022-09-12T01:33:46;17.70;71.60
29663;DHT22;16578;53.266;7.920;2022-09-12T01:36:40;17.70;71.60
29663;DHT22;16578;53.266;7.920;2022-09-12T01:47:40;17.70;71.90
29663;DHT22;16578;53.266;7.920;2022-09-12T01:50:18;17.60;71.90
29663;DHT22;16578;53.266;7.920;2022-09-12T01:52:48;17.70;72.00
29663;DHT22;16578;53.266;7.920;2022-09-12T01:55:28;17.60;71.80
29663;DHT22;16578;53.266;7.920;2022-09-12T01:58:04;17.60;72.00
29663;DHT22;16578;53.266;7.920;2022-09-12T02:00:33;17.60;71.60
29663;DHT22;16578;53.266;7.920;2022-09-12T02:03:24;17.60;71.50
29663;DHT22;16578;53.266;7.920;2022-09-12T02:06:15;17.60;71.80
29663;DHT22;16578;53.266;7.920;2022-09-12T02:09:04;17.60;72.00
29663;DHT22;16578;53.266;7.920;2022-09-12T02:11:34;17.60;72.00
29663;DHT22;16578;53.266;7.920;2022-09-12T02:14:15;17.60;71.90
29663;DHT22;16578;53.266;7.920;2022-09-12T02:16:48;17.50;71.90
29663;DHT22;16578;53.266;7.920;2022-09-12T02:19:17;17.60;72.00
29663;DHT22;16578;53.266;7.920;2022-09-12T02:21:49;17.50;72.00
29663;DHT22;16578;53.266;7.920;2022-09-12T02:24:16;17.50;72.20
29663;DHT22;16578;53.266;7.920;2022-09-12T02:27:11;17.50;72.00
29663;DHT22;16578;53.266;7.920;2022-09-12T02:29:38;17.50;72.20
29663;DHT22;16578;53.266;7.920;2022-09-12T02:38:06;17.50;72.20
29663;DHT22;16578;53.266;7.920;2022-09-12T02:40:12;17.50;72.10
29663;DHT22;16578;53.266;7.920;2022-09-12T02:42:38;17.40;72.00
29663;DHT22;16578;53.266;7.920;2022-09-12T02:45:04;17.50;72.10
29663;DHT22;16578;53.266;7.920;2022-09-12T02:47:47;17.50;72.20
29663;DHT22;16578;53.266;7.920;2022-09-12T02:50:15;17.50;72.20
29663;DHT22;16578;53.266;7.920;2022-09-12T02:52:41;17.40;72.20
29663;DHT22;16578;53.266;7.920;2022-09-12T02:55:08;17.40;72.20
29663;DHT22;16578;53.266;7.920;2022-09-12T02:57:36;17.40;72.20
29663;DHT22;16578;53.266;7.920;2022-09-12T03:00:04;17.40;72.40
29663;DHT22;16578;53.266;7.920;2022-09-12T03:05:25;17.40;72.00
29663;DHT22;16578;53.266;7.920;2022-09-12T03:08:21;17.40;72.00
29663;DHT22;16578;53.266;7.920;2022-09-12T03:24:32;17.30;71.50
29663;DHT22;16578;53.266;7.920;2022-09-12T03:27:24;17.20;71.60
29663;DHT22;16578;53.266;7.920;2022-09-12T03:29:52;17.20;71.50
29663;DHT22;16578;53.266;7.920;2022-09-12T03:32:18;17.20;71.60
29663;DHT22;16578;53.266;7.920;2022-09-12T03:34:44;17.20;71.60
29663;DHT22;16578;53.266;7.920;2022-09-12T03:37:09;17.10;71.50
29663;DHT22;16578;53.266;7.920;2022-09-12T03:39:35;17.10;71.60
29663;DHT22;16578;53.266;7.920;2022-09-12T03:42:00;17.10;71.70
29663;DHT22;16578;53.266;7.920;2022-09-12T03:44:26;17.10;71.60
29663;DHT22;16578;53.266;7.920;2022-09-12T03:46:52;17.10;71.50
29663;DHT22;16578;53.266;7.920;2022-09-12T03:49:17;17.10;71.60
29663;DHT22;16578;53.266;7.920;2022-09-12T03:51:43;17.00;71.70
29663;DHT22;16578;53.266;7.920;2022-09-12T03:54:09;17.00;71.80
29663;DHT22;16578;53.266;7.920;2022-09-12T03:56:35;17.00;71.80
29663;DHT22;16578;53.266;7.920;2022-09-12T03:59:04;17.00;71.90
29663;DHT22;16578;53.266;7.920;2022-09-12T04:01:31;17.00;72.00
29663;DHT22;16578;53.266;7.920;2022-09-12T04:03:56;17.00;72.00
29663;DHT22;16578;53.266;7.920;2022-09-12T04:06:22;17.00;72.10
29663;DHT22;16578;53.266;7.920;2022-09-12T04:08:52;17.00;72.30
29663;DHT22;16578;53.266;7.920;2022-09-12T04:11:19;17.00;72.40
29663;DHT22;16578;53.266;7.920;2022-09-12T04:13:46;17.00;72.50
29663;DHT22;16578;53.266;7.920;2022-09-12T04:16:12;17.00;72.20
29663;DHT22;16578;53.266;7.920;2022-09-12T04:18:39;17.00;72.20
29663;DHT22;16578;53.266;7.920;2022-09-12T04:21:06;17.00;72.20
29663;DHT22;16578;53.266;7.920;2022-09-12T04:23:33;17.00;72.30
29663;DHT22;16578;53.266;7.920;2022-09-12T04:26:00;17.00;72.40
29663;DHT22;16578;53.266;7.920;2022-09-12T04:28:27;17.00;72.50
29663;DHT22;16578;53.266;7.920;2022-09-12T04:30:53;17.00;72.60
29663;DHT22;16578;53.266;7.920;2022-09-12T04:33:19;17.00;72.60
29663;DHT22;16578;53.266;7.920;2022-09-12T04:35:45;17.00;72.70
29663;DHT22;16578;53.266;7.920;2022-09-12T04:38:10;17.00;72.80
29663;DHT22;16578;53.266;7.920;2022-09-12T04:40:36;17.00;72.80
29663;DHT22;16578;53.266;7.920;2022-09-12T04:43:03;17.00;72.70
29663;DHT22;16578;53.266;7.920;2022-09-12T04:45:28;17.00;72.70
29663;DHT22;16578;53.266;7.920;2022-09-12T04:47:54;17.00;72.70
29663;DHT22;16578;53.266;7.920;2022-09-12T04:50:19;17.00;72.80
29663;DHT22;16578;53.266;7.920;2022-09-12T04:52:49;17.00;72.80
29663;DHT22;16578;53.266;7.920;2022-09-12T04:55:15;17.00;72.80
29663;DHT22;16578;53.266;7.920;2022-09-12T04:57:41;17.00;72.80
29663;DHT22;16578;53.266;7.920;2022-09-12T05:00:07;17.00;72.80
29663;DHT22;16578;53.266;7.920;2022-09-12T05:02:37;17.00;72.90
29663;DHT22;16578;53.266;7.920;2022-09-12T05:05:03;17.00;72.90
29663;DHT22;16578;53.266;7.920;2022-09-12T05:07:29;17.00;72.90
29663;DHT22;16578;53.266;7.920;2022-09-12T05:09:54;17.00;73.00
29663;DHT22;16578;53.266;7.920;2022-09-12T05:12:20;16.90;73.00
29663;DHT22;16578;53.266;7.920;2022-09-12T05:14:45;17.00;73.00
29663;DHT22;16578;53.266;7.920;2022-09-12T05:17:11;16.90;73.10
29663;DHT22;16578;53.266;7.920;2022-09-12T05:19:37;17.00;73.20
29663;DHT22;16578;53.266;7.920;2022-09-12T05:22:03;17.00;73.20
29663;DHT22;16578;53.266;7.920;2022-09-12T05:24:31;17.00;73.20
29663;DHT22;16578;53.266;7.920;2022-09-12T05:26:57;17.00;73.30
29663;DHT22;16578;53.266;7.920;2022-09-12T05:29:23;17.00;73.40
29663;DHT22;16578;53.266;7.920;2022-09-12T05:31:50;17.00;73.40
29663;DHT22;16578;53.266;7.920;2022-09-12T05:34:18;17.00;73.50
29663;DHT22;16578;53.266;7.920;2022-09-12T05:36:43;17.00;73.50
29663;DHT22;16578;53.266;7.920;2022-09-12T05:39:09;17.00;73.60
29663;DHT22;16578;53.266;7.920;2022-09-12T05:41:35;17.00;73.60
29663;DHT22;16578;53.266;7.920;2022-09-12T05:44:03;17.00;73.80
29663;DHT22;16578;53.266;7.920;2022-09-12T05:46:34;17.10;73.80
29663;DHT22;16578;53.266;7.920;2022-09-12T05:49:05;17.10;73.80
29663;DHT22;16578;53.266;7.920;2022-09-12T05:51:33;17.10;73.90
29663;DHT22;16578;53.266;7.920;2022-09-12T05:54:00;17.10;74.00
29663;DHT22;16578;53.266;7.920;2022-09-12T05:56:29;17.20;74.10
29663;DHT22;16578;53.266;7.920;2022-09-12T05:59:03;17.10;74.10
29663;DHT22;16578;53.266;7.920;2022-09-12T06:01:31;17.20;75.10
29663;DHT22;16578;53.266;7.920;2022-09-12T06:03:59;17.20;74.20
29663;DHT22;16578;53.266;7.920;2022-09-12T06:06:26;17.20;74.30
29663;DHT22;16578;53.266;7.920;2022-09-12T06:08:55;17.30;74.40
29663;DHT22;16578;53.266;7.920;2022-09-12T06:11:23;17.30;74.50
29663;DHT22;16578;53.266;7.920;2022-09-12T06:13:50;17.30;74.50
29663;DHT22;16578;53.266;7.920;2022-09-12T06:16:21;17.30;74.70
29663;DHT22;16578;53.266;7.920;2022-09-12T06:18:48;17.30;74.60
29663;DHT22;16578;53.266;7.920;2022-09-12T06:21:15;17.40;74.60
29663;DHT22;16578;53.266;7.920;2022-09-12T06:23:41;17.40;74.60
29663;DHT22;16578;53.266;7.920;2022-09-12T06:26:09;17.50;74.80
29663;DHT22;16578;53.266;7.920;2022-09-12T06:28:37;17.50;74.70
29663;DHT22;16578;53.266;7.920;2022-09-12T06:31:11;17.60;74.80
29663;DHT22;16578;53.266;7.920;2022-09-12T06:33:40;17.60;75.00
29663;DHT22;16578;53.266;7.920;2022-09-12T06:36:09;17.70;75.00
29663;DHT22;16578;53.266;7.920;2022-09-12T06:38:35;17.70;75.00
29663;DHT22;16578;53.266;7.920;2022-09-12T06:41:06;17.80;75.10
29663;DHT22;16578;53.266;7.920;2022-09-12T06:43:32;17.80;75.30
29663;DHT22;16578;53.266;7.920;2022-09-12T06:45:58;17.90;76.20
29663;DHT22;16578;53.266;7.920;2022-09-12T06:48:24;17.90;75.40
29663;DHT22;16578;53.266;7.920;2022-09-12T06:50:57;18.00;75.60
29663;DHT22;16578;53.266;7.920;2022-09-12T06:53:23;18.10;75.70
29663;DHT22;16578;53.266;7.920;2022-09-12T06:56:16;18.20;75.70
29663;DHT22;16578;53.266;7.920;2022-09-12T06:58:44;18.20;75.90
29663;DHT22;16578;53.266;7.920;2022-09-12T07:01:21;18.30;75.70
29663;DHT22;16578;53.266;7.920;2022-09-12T07:03:49;18.40;75.80
29663;DHT22;16578;53.266;7.920;2022-09-12T07:06:17;18.40;75.70
29663;DHT22;16578;53.266;7.920;2022-09-12T07:08:43;18.50;75.80
29663;DHT22;16578;53.266;7.920;2022-09-12T07:13:42;18.60;75.80
29663;DHT22;16578;53.266;7.920;2022-09-12T07:16:09;18.70;75.70
29663;DHT22;16578;53.266;7.920;2022-09-12T07:18:35;18.80;75.70
29663;DHT22;16578;53.266;7.920;2022-09-12T07:21:03;18.90;76.50
29663;DHT22;16578;53.266;7.920;2022-09-12T07:23:30;18.90;75.50
29663;DHT22;16578;53.266;7.920;2022-09-12T07:25:57;19.00;75.50
29663;DHT22;16578;53.266;7.920;2022-09-12T07:28:24;19.00;75.40
29663;DHT22;16578;53.266;7.920;2022-09-12T07:30:50;19.10;75.50
29663;DHT22;16578;53.266;7.920;2022-09-12T07:33:22;19.10;75.30
29663;DHT22;16578;53.266;7.920;2022-09-12T07:35:48;19.20;75.20
29663;DHT22;16578;53.266;7.920;2022-09-12T07:38:14;19.20;75.10
29663;DHT22;16578;53.266;7.920;2022-09-12T07:40:40;19.30;75.00
29663;DHT22;16578;53.266;7.920;2022-09-12T07:43:06;19.30;74.80
29663;DHT22;16578;53.266;7.920;2022-09-12T07:45:32;19.40;74.80
29663;DHT22;16578;53.266;7.920;2022-09-12T07:47:57;19.40;74.80
29663;DHT22;16578;53.266;7.920;2022-09-12T07:50:23;19.40;74.70
29663;DHT22;16578;53.266;7.920;2022-09-12T07:52:49;19.50;74.60
29663;DHT22;16578;53.266;7.920;2022-09-12T07:55:15;19.50;74.60
29663;DHT22;16578;53.266;7.920;2022-09-12T07:57:41;19.50;74.60
29663;DHT22;16578;53.266;7.920;2022-09-12T08:00:07;19.60;74.50
29663;DHT22;16578;53.266;7.920;2022-09-12T08:02:33;19.60;74.60
29663;DHT22;16578;53.266;7.920;2022-09-12T08:04:59;19.60;74.70
29663;DHT22;16578;53.266;7.920;2022-09-12T08:07:24;19.70;74.70
29663;DHT22;16578;53.266;7.920;2022-09-12T08:09:50;19.70;74.90
29663;DHT22;16578;53.266;7.920;2022-09-12T08:12:16;19.70;74.90
29663;DHT22;16578;53.266;7.920;2022-09-12T08:14:42;19.80;74.90
29663;DHT22;16578;53.266;7.920;2022-09-12T08:17:08;19.80;74.80
29663;DHT22;16578;53.266;7.920;2022-09-12T08:19:33;19.90;74.90
29663;DHT22;16578;53.266;7.920;2022-09-12T08:21:59;19.90;74.90
29663;DHT22;16578;53.266;7.920;2022-09-12T08:24:25;20.00;74.90
29663;DHT22;16578;53.266;7.920;2022-09-12T08:26:51;20.00;74.90
29663;DHT22;16578;53.266;7.920;2022-09-12T08:29:16;20.10;74.90
29663;DHT22;16578;53.266;7.920;2022-09-12T08:31:42;20.10;74.90
29663;DHT22;16578;53.266;7.920;2022-09-12T08:34:08;20.20;74.70
29663;DHT22;16578;53.266;7.920;2022-09-12T08:36:34;20.20;74.50
29663;DHT22;16578;53.266;7.920;2022-09-12T08:39:03;20.30;74.40
29663;DHT22;16578;53.266;7.920;2022-09-12T08:41:35;20.40;75.30
29663;DHT22;16578;53.266;7.920;2022-09-12T08:47:17;20.40;74.00
29663;DHT22;16578;53.266;7.920;2022-09-12T08:50:09;20.50;73.70
29663;DHT22;16578;53.266;7.920;2022-09-12T08:58:06;20.60;73.80
29663;DHT22;16578;53.266;7.920;2022-09-12T09:00:43;20.60;73.70
29663;DHT22;16578;53.266;7.920;2022-09-12T09:11:31;20.80;73.70
29663;DHT22;16578;53.266;7.920;2022-09-12T09:14:11;20.90;73.70
29663;DHT22;16578;53.266;7.920;2022-09-12T09:17:01;20.90;73.70
29663;DHT22;16578;53.266;7.920;2022-09-12T09:19:39;20.90;73.60
29663;DHT22;16578;53.266;7.920;2022-09-12T09:22:11;21.00;74.30
29663;DHT22;16578;53.266;7.920;2022-09-12T09:24:49;21.10;73.40
29663;DHT22;16578;53.266;7.920;2022-09-12T09:27:40;21.10;73.20
29663;DHT22;16578;53.266;7.920;2022-09-12T09:30:17;21.10;72.80
29663;DHT22;16578;53.266;7.920;2022-09-12T09:32:46;21.20;72.80
29663;DHT22;16578;53.266;7.920;2022-09-12T09:35:15;21.20;72.60
29663;DHT22;16578;53.266;7.920;2022-09-12T09:38:07;21.20;72.50
29663;DHT22;16578;53.266;7.920;2022-09-12T09:40:35;21.30;72.50
29663;DHT22;16578;53.266;7.920;2022-09-12T09:43:20;21.30;72.60
29663;DHT22;16578;53.266;7.920;2022-09-12T09:45:48;21.40;72.30
29663;DHT22;16578;53.266;7.920;2022-09-12T09:48:26;21.30;72.40
29663;DHT22;16578;53.266;7.920;2022-09-12T09:50:56;21.40;72.60
29663;DHT22;16578;53.266;7.920;2022-09-12T09:56:26;21.50;72.70
29663;DHT22;16578;53.266;7.920;2022-09-12T09:58:53;21.60;72.70
29663;DHT22;16578;53.266;7.920;2022-09-12T10:01:18;21.60;72.40
29663;DHT22;16578;53.266;7.920;2022-09-12T10:03:53;21.60;72.20
29663;DHT22;16578;53.266;7.920;2022-09-12T10:08:45;21.70;72.80
29663;DHT22;16578;53.266;7.920;2022-09-12T10:16:21;21.80;72.00
29663;DHT22;16578;53.266;7.920;2022-09-12T10:18:48;21.90;71.70
29663;DHT22;16578;53.266;7.920;2022-09-12T10:21:33;22.00;71.30
29663;DHT22;16578;53.266;7.920;2022-09-12T10:24:27;22.00;71.20
29663;DHT22;16578;53.266;7.920;2022-09-12T10:27:04;22.10;70.60
29663;DHT22;16578;53.266;7.920;2022-09-12T10:29:33;22.10;70.60
29663;DHT22;16578;53.266;7.920;2022-09-12T10:32:05;22.20;70.10
29663;DHT22;16578;53.266;7.920;2022-09-12T10:34:38;22.20;69.40
29663;DHT22;16578;53.266;7.920;2022-09-12T10:37:08;22.20;69.10
29663;DHT22;16578;53.266;7.920;2022-09-12T10:39:36;22.30;69.40
29663;DHT22;16578;53.266;7.920;2022-09-12T10:42:03;22.30;68.90
29663;DHT22;16578;53.266;7.920;2022-09-12T10:44:32;22.30;68.40
29663;DHT22;16578;53.266;7.920;2022-09-12T10:46:59;22.40;67.40
29663;DHT22;16578;53.266;7.920;2022-09-12T10:49:43;22.40;67.40
29663;DHT22;16578;53.266;7.920;2022-09-12T10:54:42;22.50;67.20
29663;DHT22;16578;53.266;7.920;2022-09-12T10:59:53;22.50;66.30
29663;DHT22;16578;53.266;7.920;2022-09-12T11:02:29;22.50;66.30
29663;DHT22;16578;53.266;7.920;2022-09-12T11:05:30;22.50;66.20
29663;DHT22;16578;53.266;7.920;2022-09-12T11:08:17;22.60;65.80
29663;DHT22;16578;53.266;7.920;2022-09-12T11:13:52;22.60;65.50
29663;DHT22;16578;53.266;7.920;2022-09-12T11:35:17;22.80;65.20
29663;DHT22;16578;53.266;7.920;2022-09-12T11:38:15;22.90;65.00
29663;DHT22;16578;53.266;7.920;2022-09-12T11:40:50;23.00;64.50
29663;DHT22;16578;53.266;7.920;2022-09-12T11:43:34;23.00;64.10
29663;DHT22;16578;53.266;7.920;2022-09-12T11:51:23;23.10;63.70
29663;DHT22;16578;53.266;7.920;2022-09-12T11:56:44;23.30;63.60
29663;DHT22;16578;53.266;7.920;2022-09-12T11:59:25;23.30;63.40
29663;DHT22;16578;53.266;7.920;2022-09-12T12:01:57;23.40;62.70
29663;DHT22;16578;53.266;7.920;2022-09-12T12:04:36;23.40;62.20
29663;DHT22;16578;53.266;7.920;2022-09-12T12:07:06;23.50;62.00
29663;DHT22;16578;53.266;7.920;2022-09-12T12:09:33;23.50;62.60
29663;DHT22;16578;53.266;7.920;2022-09-12T12:12:03;23.60;62.70
29663;DHT22;16578;53.266;7.920;2022-09-12T12:14:42;23.60;62.30
29663;DHT22;16578;53.266;7.920;2022-09-12T12:17:23;23.70;63.10
29663;DHT22;16578;53.266;7.920;2022-09-12T12:20:02;23.70;62.00
29663;DHT22;16578;53.266;7.920;2022-09-12T12:22:29;23.80;61.60
29663;DHT22;16578;53.266;7.920;2022-09-12T12:27:49;23.80;60.20
29663;DHT22;16578;53.266;7.920;2022-09-12T12:35:42;23.90;61.40
29663;DHT22;16578;53.266;7.920;2022-09-12T12:38:29;23.90;61.10
29663;DHT22;16578;53.266;7.920;2022-09-12T12:41:56;23.90;61.10
29663;DHT22;16578;53.266;7.920;2022-09-12T12:49:49;23.90;60.60
29663;DHT22;16578;53.266;7.920;2022-09-12T12:52:16;23.90;60.20
29663;DHT22;16578;53.266;7.920;2022-09-12T13:02:34;23.90;59.80
29663;DHT22;16578;53.266;7.920;2022-09-12T13:05:05;23.90;59.40
29663;DHT22;16578;53.266;7.920;2022-09-12T13:07:36;23.90;59.70
29663;DHT22;16578;53.266;7.920;2022-09-12T13:10:05;24.00;59.50
29663;DHT22;16578;53.266;7.920;2022-09-12T13:12:43;24.00;59.90
29663;DHT22;16578;53.266;7.920;2022-09-12T13:15:47;24.00;59.70
29663;DHT22;16578;53.266;7.920;2022-09-12T13:18:23;24.10;59.50
29663;DHT22;16578;53.266;7.920;2022-09-12T13:23:36;24.10;59.80
29663;DHT22;16578;53.266;7.920;2022-09-12T13:26:03;24.20;59.70
29663;DHT22;16578;53.266;7.920;2022-09-12T13:28:34;24.10;59.90
29663;DHT22;16578;53.266;7.920;2022-09-12T13:31:17;24.20;59.40
29663;DHT22;16578;53.266;7.920;2022-09-12T13:33:54;24.20;58.90
29663;DHT22;16578;53.266;7.920;2022-09-12T13:44:42;24.30;58.20
29663;DHT22;16578;53.266;7.920;2022-09-12T13:47:14;24.30;58.10
29663;DHT22;16578;53.266;7.920;2022-09-12T13:49:41;24.30;57.80
29663;DHT22;16578;53.266;7.920;2022-09-12T13:52:14;24.30;58.10
29663;DHT22;16578;53.266;7.920;2022-09-12T13:54:43;24.30;58.20
29663;DHT22;16578;53.266;7.920;2022-09-12T13:57:34;24.30;57.50
29663;DHT22;16578;53.266;7.920;2022-09-12T14:00:12;24.40;57.30
29663;DHT22;16578;53.266;7.920;2022-09-12T14:02:42;24.40;57.30
29663;DHT22;16578;53.266;7.920;2022-09-12T14:05:16;24.40;57.20
29663;DHT22;16578;53.266;7.920;2022-09-12T14:07:51;24.40;57.00
29663;DHT22;16578;53.266;7.920;2022-09-12T14:10:32;24.40;56.80
29663;DHT22;16578;53.266;7.920;2022-09-12T14:13:00;24.40;56.50
29663;DHT22;16578;53.266;7.920;2022-09-12T14:15:32;24.40;56.50
29663;DHT22;16578;53.266;7.920;2022-09-12T14:18:02;24.50;56.80
29663;DHT22;16578;53.266;7.920;2022-09-12T14:20:29;24.50;56.80
29663;DHT22;16578;53.266;7.920;2022-09-12T14:23:01;24.50;56.70
29663;DHT22;16578;53.266;7.920;2022-09-12T14:25:33;24.50;56.70
29663;DHT22;16578;53.266;7.920;2022-09-12T14:28:01;24.60;56.80
29663;DHT22;16578;53.266;7.920;2022-09-12T14:30:30;24.60;57.60
29663;DHT22;16578;53.266;7.920;2022-09-12T14:35:41;24.70;56.60
29663;DHT22;16578;53.266;7.920;2022-09-12T14:40:43;24.70;56.40
29663;DHT22;16578;53.266;7.920;2022-09-12T14:43:36;24.70;56.40
29663;DHT22;16578;53.266;7.920;2022-09-12T14:46:23;24.70;56.00
29663;DHT22;16578;53.266;7.920;2022-09-12T14:48:53;24.70;55.80
29663;DHT22;16578;53.266;7.920;2022-09-12T14:51:26;24.70;56.00
29663;DHT22;16578;53.266;7.920;2022-09-12T14:53:53;24.70;55.90
29663;DHT22;16578;53.266;7.920;2022-09-12T14:56:21;24.80;56.80
29663;DHT22;16578;53.266;7.920;2022-09-12T14:59:34;24.80;55.90
29663;DHT22;16578;53.266;7.920;2022-09-12T15:04:43;24.80;55.50
29663;DHT22;16578;53.266;7.920;2022-09-12T15:10:04;24.80;56.00
29663;DHT22;16578;53.266;7.920;2022-09-12T15:12:30;24.80;55.90
29663;DHT22;16578;53.266;7.920;2022-09-12T15:14:59;24.80;56.20
29663;DHT22;16578;53.266;7.920;2022-09-12T15:17:28;24.80;55.70
29663;DHT22;16578;53.266;7.920;2022-09-12T15:19:53;24.80;55.90
29663;DHT22;16578;53.266;7.920;2022-09-12T15:22:21;24.80;55.80
29663;DHT22;16578;53.266;7.920;2022-09-12T15:24:48;24.80;55.90
29663;DHT22;16578;53.266;7.920;2022-09-12T15:27:13;24.80;56.10
29663;DHT22;16578;53.266;7.920;2022-09-12T15:29:39;24.90;56.40
29663;DHT22;16578;53.266;7.920;2022-09-12T15:32:08;24.90;56.20
29663;DHT22;16578;53.266;7.920;2022-09-12T15:34:39;24.90;56.30
29663;DHT22;16578;53.266;7.920;2022-09-12T15:37:11;25.00;56.40
29663;DHT22;16578;53.266;7.920;2022-09-12T15:39:38;25.00;55.70
29663;DHT22;16578;53.266;7.920;2022-09-12T15:42:04;25.00;55.90
29663;DHT22;16578;53.266;7.920;2022-09-12T15:44:29;25.00;56.10
29663;DHT22;16578;53.266;7.920;2022-09-12T15:46:55;25.00;56.10
29663;DHT22;16578;53.266;7.920;2022-09-12T15:49:20;25.00;56.00
29663;DHT22;16578;53.266;7.920;2022-09-12T15:51:46;25.00;55.90
29663;DHT22;16578;53.266;7.920;2022-09-12T15:54:13;25.00;56.00
29663;DHT22;16578;53.266;7.920;2022-09-12T15:56:39;25.00;55.50
29663;DHT22;16578;53.266;7.920;2022-09-12T15:59:05;25.00;55.30
29663;DHT22;16578;53.266;7.920;2022-09-12T16:01:30;25.00;55.30
29663;DHT22;16578;53.266;7.920;2022-09-12T16:03:56;25.00;55.20
29663;DHT22;16578;53.266;7.920;2022-09-12T16:06:22;25.10;55.10
29663;DHT22;16578;53.266;7.920;2022-09-12T16:08:48;25.00;55.10
29663;DHT22;16578;53.266;7.920;2022-09-12T16:11:20;25.00;54.80
29663;DHT22;16578;53.266;7.920;2022-09-12T16:13:46;25.10;54.70
29663;DHT22;16578;53.266;7.920;2022-09-12T16:16:11;25.10;54.80
29663;DHT22;16578;53.266;7.920;2022-09-12T16:18:40;25.10;55.10
29663;DHT22;16578;53.266;7.920;2022-09-12T16:21:05;25.10;54.80
29663;DHT22;16578;53.266;7.920;2022-09-12T16:23:31;25.10;54.60
29663;DHT22;16578;53.266;7.920;2022-09-12T16:25:58;25.10;54.80
29663;DHT22;16578;53.266;7.920;2022-09-12T16:28:24;25.10;54.50
29663;DHT22;16578;53.266;7.920;2022-09-12T16:30:56;25.10;55.30
29663;DHT22;16578;53.266;7.920;2022-09-12T16:33:22;25.10;54.40
29663;DHT22;16578;53.266;7.920;2022-09-12T16:35:48;25.10;55.00
29663;DHT22;16578;53.266;7.920;2022-09-12T16:38:18;25.10;54.70
29663;DHT22;16578;53.266;7.920;2022-09-12T16:40:44;25.00;54.70
29663;DHT22;16578;53.266;7.920;2022-09-12T16:43:10;25.00;54.50
29663;DHT22;16578;53.266;7.920;2022-09-12T16:45:35;25.00;54.50
29663;DHT22;16578;53.266;7.920;2022-09-12T16:48:01;25.00;54.90
29663;DHT22;16578;53.266;7.920;2022-09-12T16:50:27;25.00;54.80
29663;DHT22;16578;53.266;7.920;2022-09-12T16:52:53;25.00;54.70
29663;DHT22;16578;53.266;7.920;2022-09-12T16:55:19;25.00;54.60
29663;DHT22;16578;53.266;7.920;2022-09-12T16:57:47;24.90;55.00
29663;DHT22;16578;53.266;7.920;2022-09-12T17:00:14;25.00;55.10
29663;DHT22;16578;53.266;7.920;2022-09-12T17:02:39;24.90;55.00
29663;DHT22;16578;53.266;7.920;2022-09-12T17:05:05;24.90;54.90
29663;DHT22;16578;53.266;7.920;2022-09-12T17:07:31;24.90;54.90
29663;DHT22;16578;53.266;7.920;2022-09-12T17:09:58;24.90;54.80
29663;DHT22;16578;53.266;7.920;2022-09-12T17:12:24;24.80;54.80
29663;DHT22;16578;53.266;7.920;2022-09-12T17:14:50;24.80;55.00
29663;DHT22;16578;53.266;7.920;2022-09-12T17:17:15;24.80;54.90
29663;DHT22;16578;53.266;7.920;2022-09-12T17:19:41;24.80;55.10
29663;DHT22;16578;53.266;7.920;2022-09-12T17:22:08;24.80;55.00
29663;DHT22;16578;53.266;7.920;2022-09-12T17:24:33;24.70;54.90
29663;DHT22;16578;53.266;7.920;2022-09-12T17:26:59;24.70;55.00
29663;DHT22;16578;53.266;7.920;2022-09-12T17:29:24;24.60;54.90
29663;DHT22;16578;53.266;7.920;2022-09-12T17:31:50;24.60;54.90
29663;DHT22;16578;53.266;7.920;2022-09-12T17:34:16;24.60;55.00
29663;DHT22;16578;53.266;7.920;2022-09-12T17:36:43;24.60;55.00
29663;DHT22;16578;53.266;7.920;2022-09-12T17:39:09;24.50;55.30
29663;DHT22;16578;53.266;7.920;2022-09-12T17:41:35;24.50;56.00
29663;DHT22;16578;53.266;7.920;2022-09-12T17:44:02;24.40;55.30
29663;DHT22;16578;53.266;7.920;2022-09-12T17:46:32;24.40;55.50
29663;DHT22;16578;53.266;7.920;2022-09-12T17:48:59;24.40;55.70
29663;DHT22;16578;53.266;7.920;2022-09-12T17:51:26;24.30;55.70
29663;DHT22;16578;53.266;7.920;2022-09-12T17:56:23;24.20;56.10
29663;DHT22;16578;53.266;7.920;2022-09-12T17:58:52;24.20;56.20
29663;DHT22;16578;53.266;7.920;2022-09-12T18:01:18;24.10;56.60
29663;DHT22;16578;53.266;7.920;2022-09-12T18:04:06;24.10;56.90
29663;DHT22;16578;53.266;7.920;2022-09-12T18:06:32;24.00;57.20
29663;DHT22;16578;53.266;7.920;2022-09-12T18:08:59;24.00;56.90
29663;DHT22;16578;53.266;7.920;2022-09-12T18:11:26;24.00;56.80
29663;DHT22;16578;53.266;7.920;2022-09-12T18:13:51;23.90;56.80
29663;DHT22;16578;53.266;7.920;2022-09-12T18:16:17;23.90;56.80
29663;DHT22;16578;53.266;7.920;2022-09-12T18:18:42;23.80;57.00
29663;DHT22;16578;53.266;7.920;2022-09-12T18:21:10;23.80;57.00